createdAt,value
2022-09-26T00:01:35.632Z,11.90
2022-09-26T00:04:07.939Z,13.80
2022-09-26T00:06:34.953Z,13.00
2022-09-26T00:09:03.966Z,12.00
2022-09-26T00:11:33.298Z,12.00
2022-09-26T00:14:08.310Z,12.00
2022-09-26T00:16:35.651Z,13.30
2022-09-26T00:19:03.583Z,12.00
2022-09-26T00:21:31.569Z,12.00
2022-09-26T00:24:00.484Z,13.10
2022-09-26T00:26:30.305Z,13.90
2022-09-26T00:28:58.500Z,12.00
2022-09-26T00:31:30.351Z,12.00
2022-09-26T00:33:57.705Z,12.00
2022-09-26T00:36:36.874Z,11.90
2022-09-26T00:39:05.741Z,14.50
2022-09-26T00:41:32.672Z,14.40
2022-09-26T00:43:59.635Z,11.90
2022-09-26T00:46:44.974Z,11.90
2022-09-26T00:49:27.462Z,11.90
2022-09-26T00:52:07.762Z,11.90
2022-09-26T00:54:36.751Z,11.90
2022-09-26T00:57:09.053Z,12.80
2022-09-26T00:59:48.653Z,12.00
2022-09-26T01:02:16.280Z,12.00
2022-09-26T01:04:45.644Z,12.30
2022-09-26T01:07:21.318Z,12.00
2022-09-26T01:09:49.033Z,12.50
2022-09-26T01:12:17.462Z,13.30
2022-09-26T01:14:47.343Z,14.60
2022-09-26T01:17:15.483Z,13.40
2022-09-26T01:20:28.308Z,11.90
2022-09-26T01:23:32.538Z,11.90
2022-09-26T01:26:27.342Z,11.90
2022-09-26T01:29:42.864Z,11.90
2022-09-26T01:32:49.032Z,11.90
2022-09-26T01:35:59.642Z,12.00
2022-09-26T01:38:50.600Z,11.90
2022-09-26T01:41:17.360Z,11.90
2022-09-26T01:44:08.246Z,11.90
2022-09-26T01:47:11.227Z,11.90
2022-09-26T01:49:53.503Z,13.10
2022-09-26T01:52:57.579Z,11.80
2022-09-26T01:55:53.474Z,11.80
2022-09-26T01:58:34.039Z,11.80
2022-09-26T02:01:09.115Z,11.90
2022-09-26T02:03:44.636Z,12.70
2022-09-26T02:06:31.155Z,11.90
2022-09-26T02:09:07.406Z,11.90
2022-09-26T02:11:35.467Z,11.90
2022-09-26T02:14:07.551Z,12.70
2022-09-26T02:16:51.327Z,12.60
2022-09-26T02:19:28.312Z,11.80
2022-09-26T02:21:56.245Z,11.90
2022-09-26T02:24:23.551Z,11.80
2022-09-26T02:26:51.867Z,14.40
2022-09-26T02:29:20.589Z,11.80
2022-09-26T02:32:16.519Z,11.90
2022-09-26T02:34:47.045Z,11.90
2022-09-26T02:37:16.764Z,12.80
2022-09-26T02:39:45.932Z,14.20
2022-09-26T02:42:31.525Z,11.90
2022-09-26T02:45:23.422Z,13.00
2022-09-26T02:48:37.620Z,11.90
2022-09-26T02:51:54.254Z,11.90
2022-09-26T02:54:54.183Z,11.80
2022-09-26T02:57:48.796Z,11.80
2022-09-26T03:00:24.533Z,11.80
2022-09-26T03:03:21.633Z,11.80
2022-09-26T03:05:52.117Z,11.80
2022-09-26T03:08:29.769Z,11.80
2022-09-26T03:10:59.825Z,11.80
2022-09-26T03:13:28.095Z,12.80
2022-09-26T03:15:57.665Z,11.80
2022-09-26T03:18:30.430Z,11.80
2022-09-26T03:20:57.788Z,11.80
2022-09-26T03:23:26.847Z,11.80
2022-09-26T03:26:18.282Z,11.80
2022-09-26T03:28:45.710Z,11.80
2022-09-26T03:31:12.692Z,11.80
2022-09-26T03:33:40.444Z,13.20
2022-09-26T03:36:09.525Z,11.80
2022-09-26T03:38:36.571Z,11.80
2022-09-26T03:41:03.691Z,11.80
2022-09-26T03:43:31.523Z,11.80
2022-09-26T03:46:06.693Z,11.80
2022-09-26T03:48:34.247Z,11.80
2022-09-26T03:51:11.205Z,11.80
2022-09-26T03:53:42.001Z,11.80
2022-09-26T03:56:11.658Z,11.80
2022-09-26T03:58:39.695Z,11.80
2022-09-26T04:01:08.905Z,12.70
2022-09-26T04:03:45.150Z,13.00
2022-09-26T04:06:19.681Z,11.90
2022-09-26T04:08:49.511Z,11.90
2022-09-26T04:11:20.673Z,13.50
2022-09-26T04:13:53.211Z,11.90
2022-09-26T04:16:23.083Z,11.90
2022-09-26T04:18:56.172Z,13.70
2022-09-26T04:21:24.545Z,11.90
2022-09-26T04:23:53.651Z,13.20
2022-09-26T04:26:24.380Z,13.30
2022-09-26T04:28:54.888Z,14.20
2022-09-26T04:31:27.549Z,11.80
2022-09-26T04:33:55.387Z,11.80
2022-09-26T04:36:22.676Z,14.30
2022-09-26T04:38:49.635Z,11.80
2022-09-26T04:41:20.149Z,13.40
2022-09-26T04:43:47.611Z,11.80
2022-09-26T04:46:22.233Z,11.80
2022-09-26T04:48:52.983Z,14.50
2022-09-26T04:51:21.593Z,12.70
2022-09-26T04:53:49.017Z,11.90
2022-09-26T04:56:18.131Z,11.90
2022-09-26T04:58:45.735Z,11.90
2022-09-26T05:01:16.648Z,13.10
2022-09-26T05:03:44.279Z,11.80
2022-09-26T05:06:13.115Z,12.80
2022-09-26T05:08:42.631Z,14.60
2022-09-26T05:11:09.861Z,9.30
2022-09-26T05:13:38.789Z,14.70
2022-09-26T05:16:08.807Z,11.80
2022-09-26T05:18:37.618Z,12.10
2022-09-26T05:21:06.600Z,13.10
2022-09-26T05:23:52.736Z,11.90
2022-09-26T05:26:28.371Z,11.90
2022-09-26T05:29:06.893Z,11.90
2022-09-26T05:31:37.136Z,13.90
2022-09-26T05:34:13.142Z,13.00
2022-09-26T05:36:43.087Z,11.90
2022-09-26T05:39:29.945Z,12.70
2022-09-26T05:41:59.762Z,11.90
2022-09-26T05:44:27.446Z,11.90
2022-09-26T05:46:57.528Z,11.90
2022-09-26T05:49:25.160Z,11.90
2022-09-26T05:51:53.699Z,11.90
2022-09-26T05:54:20.783Z,14.80
2022-09-26T05:56:48.203Z,12.70
2022-09-26T05:59:15.159Z,11.90
2022-09-26T06:01:42.192Z,11.90
2022-09-26T06:04:10.379Z,11.90
2022-09-26T06:06:37.234Z,11.90
2022-09-26T06:09:04.293Z,13.50
2022-09-26T06:11:31.319Z,11.90
2022-09-26T06:14:00.772Z,11.80
2022-09-26T06:16:29.071Z,12.80
2022-09-26T06:18:56.225Z,11.90
2022-09-26T06:21:24.005Z,12.90
2022-09-26T06:23:50.990Z,14.40
2022-09-26T06:26:24.212Z,13.10
2022-09-26T06:29:00.051Z,14.30
2022-09-26T06:31:28.356Z,11.90
2022-09-26T06:33:55.319Z,12.80
2022-09-26T06:36:23.666Z,11.90
2022-09-26T06:38:51.479Z,13.20
2022-09-26T06:41:18.733Z,14.60
2022-09-26T06:43:47.519Z,13.10
2022-09-26T06:46:16.306Z,12.00
2022-09-26T06:48:43.758Z,12.00
2022-09-26T06:51:14.170Z,12.00
2022-09-26T06:53:42.636Z,12.60
2022-09-26T06:56:09.572Z,12.00
2022-09-26T06:58:36.630Z,12.10
2022-09-26T07:01:04.103Z,14.40
2022-09-26T07:03:31.631Z,12.10
2022-09-26T07:05:58.787Z,14.20
2022-09-26T07:08:50.135Z,14.80
2022-09-26T07:11:37.721Z,13.70
2022-09-26T07:14:02.032Z,12.80
2022-09-26T07:16:29.937Z,12.20
2022-09-26T07:18:57.402Z,12.10
2022-09-26T07:21:24.270Z,12.20
2022-09-26T07:23:51.257Z,13.90
2022-09-26T07:26:18.478Z,12.10
2022-09-26T07:28:46.942Z,12.10
2022-09-26T07:31:15.658Z,14.00
2022-09-26T07:33:42.650Z,12.20
2022-09-26T07:36:09.784Z,12.20
2022-09-26T07:38:36.821Z,12.20
2022-09-26T07:41:03.800Z,12.80
2022-09-26T07:44:18.931Z,15.20
2022-09-26T07:46:43.430Z,12.20
2022-09-26T07:49:28.539Z,13.10
2022-09-26T07:51:56.758Z,13.40
2022-09-26T07:54:24.260Z,12.20
2022-09-26T07:56:51.339Z,13.90
2022-09-26T07:59:18.703Z,14.50
2022-09-26T08:01:46.255Z,14.60
2022-09-26T08:04:14.253Z,14.30
2022-09-26T08:06:41.337Z,15.60
2022-09-26T08:09:08.684Z,13.10
2022-09-26T08:11:36.730Z,12.30
2022-09-26T08:14:03.886Z,13.50
2022-09-26T08:16:30.882Z,13.40
2022-09-26T08:18:58.917Z,15.20
2022-09-26T08:21:25.848Z,12.70
2022-09-26T08:23:53.806Z,12.50
2022-09-26T08:26:23.833Z,15.20
2022-09-26T08:28:50.772Z,15.30
2022-09-26T08:31:18.012Z,14.70
2022-09-26T08:33:44.991Z,14.50
2022-09-26T08:36:15.338Z,13.30
2022-09-26T08:38:42.251Z,14.50
2022-09-26T08:41:21.486Z,14.00
2022-09-26T08:44:16.933Z,12.50
2022-09-26T08:47:53.394Z,12.60
2022-09-26T08:50:40.169Z,12.70
2022-09-26T08:53:19.118Z,12.60
2022-09-26T08:55:49.084Z,12.60
2022-09-26T08:58:37.743Z,14.00
2022-09-26T09:01:13.469Z,13.70
2022-09-26T09:03:53.193Z,12.70
2022-09-26T09:06:20.296Z,13.70
2022-09-26T09:08:51.783Z,15.10
2022-09-26T09:11:52.048Z,12.80
2022-09-26T09:15:02.283Z,12.80
2022-09-26T09:17:53.613Z,12.80
2022-09-26T09:20:49.906Z,12.90
2022-09-26T09:23:51.753Z,12.90
2022-09-26T09:29:59.275Z,13.00
2022-09-26T09:32:57.158Z,13.10
2022-09-26T09:35:54.763Z,13.10
2022-09-26T09:38:28.262Z,13.10
2022-09-26T09:41:16.514Z,13.00
2022-09-26T09:44:05.583Z,13.40
2022-09-26T09:46:43.547Z,13.20
2022-09-26T09:49:10.456Z,13.80
2022-09-26T09:52:13.685Z,13.20
2022-09-26T09:55:18.246Z,13.20
2022-09-26T09:58:11.241Z,16.00
2022-09-26T10:00:51.032Z,13.30
2022-09-26T10:03:55.474Z,15.00
2022-09-26T10:06:44.776Z,14.10
2022-09-26T10:09:41.260Z,15.10
2022-09-26T10:12:21.303Z,13.60
2022-09-26T10:15:03.810Z,13.70
2022-09-26T10:17:31.139Z,13.70
2022-09-26T10:19:58.421Z,15.80
2022-09-26T10:22:35.808Z,13.80
2022-09-26T10:25:17.763Z,14.70
2022-09-26T10:27:55.128Z,13.90
2022-09-26T10:30:26.135Z,14.00
2022-09-26T10:32:58.920Z,13.90
2022-09-26T10:35:29.826Z,15.00
2022-09-26T10:38:22.680Z,16.50
2022-09-26T10:41:04.891Z,15.30
2022-09-26T10:43:35.418Z,14.30
2022-09-26T10:46:12.976Z,14.40
2022-09-26T10:48:54.203Z,15.50
2022-09-26T10:51:31.815Z,14.60
2022-09-26T10:54:10.756Z,14.60
2022-09-26T10:56:43.347Z,14.80
2022-09-26T10:59:15.952Z,16.40
2022-09-26T11:01:55.975Z,15.50
2022-09-26T11:04:47.307Z,15.00
2022-09-26T11:07:30.302Z,15.10
2022-09-26T11:10:06.809Z,15.10
2022-09-26T11:12:39.595Z,15.20
2022-09-26T11:15:11.996Z,15.30
2022-09-26T11:17:49.213Z,15.10
2022-09-26T11:20:34.567Z,15.10
2022-09-26T11:23:04.119Z,15.80
2022-09-26T11:26:11.599Z,15.00
2022-09-26T11:28:44.939Z,14.90
2022-09-26T11:31:29.614Z,15.50
2022-09-26T11:34:03.320Z,14.80
2022-09-26T11:37:03.578Z,15.00
2022-09-26T11:40:17.718Z,14.70
2022-09-26T11:42:55.588Z,14.80
2022-09-26T11:45:39.956Z,14.70
2022-09-26T11:48:28.249Z,14.80
2022-09-26T11:51:31.530Z,14.80
2022-09-26T11:54:16.388Z,14.90
2022-09-26T11:56:54.233Z,14.90
2022-09-26T11:59:50.197Z,15.00
2022-09-26T12:02:39.929Z,15.20
2022-09-26T12:05:54.687Z,15.10
2022-09-26T12:09:03.092Z,15.20
2022-09-26T12:11:53.140Z,15.20
2022-09-26T12:14:55.017Z,15.20
2022-09-26T12:17:46.888Z,15.30
2022-09-26T12:20:32.542Z,15.40
2022-09-26T12:23:05.517Z,15.50
2022-09-26T12:26:10.583Z,15.60
2022-09-26T12:28:56.442Z,15.60
2022-09-26T12:31:52.200Z,15.70
2022-09-26T12:34:24.793Z,15.80
2022-09-26T12:37:34.644Z,15.80
2022-09-26T12:40:31.187Z,15.90
2022-09-26T12:43:26.093Z,17.90
2022-09-26T12:46:35.793Z,16.10
2022-09-26T12:49:45.018Z,16.10
2022-09-26T12:52:52.261Z,16.20
2022-09-26T12:55:48.979Z,16.40
2022-09-26T12:58:46.642Z,16.50
2022-09-26T13:01:29.160Z,16.50
2022-09-26T13:04:02.006Z,16.50
2022-09-26T13:06:57.022Z,17.10
2022-09-26T13:10:06.973Z,16.40
2022-09-26T13:12:58.611Z,16.30
2022-09-26T13:15:54.255Z,16.20
2022-09-26T13:18:33.116Z,16.20
2022-09-26T13:21:09.413Z,16.50
2022-09-26T13:23:44.447Z,16.20
2022-09-26T13:26:25.959Z,16.80
2022-09-26T13:29:37.407Z,16.40
2022-09-26T13:32:25.073Z,16.20
2022-09-26T13:35:02.851Z,16.30
2022-09-26T13:38:15.587Z,16.30
2022-09-26T13:41:16.228Z,16.30
2022-09-26T13:44:09.301Z,16.30
2022-09-26T13:47:19.707Z,16.30
2022-09-26T13:50:31.502Z,16.30
2022-09-26T13:53:28.846Z,16.30
2022-09-26T13:56:36.363Z,16.30
2022-09-26T13:59:12.495Z,16.30
2022-09-26T14:02:15.872Z,16.40
2022-09-26T14:04:48.486Z,16.30
2022-09-26T14:08:02.138Z,16.30
2022-09-26T14:10:37.775Z,16.30
2022-09-26T14:13:10.966Z,16.70
2022-09-26T14:15:47.323Z,16.20
2022-09-26T14:18:53.871Z,14.00
2022-09-26T14:21:38.302Z,16.20
2022-09-26T14:24:20.401Z,16.10
2022-09-26T14:27:10.008Z,16.10
2022-09-26T14:29:39.805Z,16.10
2022-09-26T14:32:10.362Z,16.00
2022-09-26T14:34:54.072Z,16.90
2022-09-26T14:37:30.547Z,16.00
2022-09-26T14:40:20.040Z,16.70
2022-09-26T14:42:49.419Z,16.10
2022-09-26T14:45:25.613Z,16.30
2022-09-26T14:48:09.025Z,16.30
2022-09-26T14:51:00.866Z,16.40
2022-09-26T14:53:58.567Z,18.60
2022-09-26T14:56:32.521Z,16.80
2022-09-26T14:59:24.265Z,16.90
2022-09-26T15:02:14.324Z,16.90
2022-09-26T15:04:45.180Z,16.90
2022-09-26T15:07:21.424Z,16.90
2022-09-26T15:09:55.998Z,17.00
2022-09-26T15:12:37.359Z,17.00
2022-09-26T15:15:10.338Z,17.00
2022-09-26T15:17:47.050Z,17.10
2022-09-26T15:20:19.338Z,17.20
2022-09-26T15:22:47.978Z,17.20
2022-09-26T15:25:32.089Z,17.40
2022-09-26T15:28:00.093Z,17.50
2022-09-26T15:30:37.081Z,17.60
2022-09-26T15:33:04.371Z,17.70
2022-09-26T15:35:32.551Z,17.60
2022-09-26T15:38:01.956Z,17.50
2022-09-26T15:40:32.106Z,17.40
2022-09-26T15:43:22.471Z,17.20
2022-09-26T15:45:59.695Z,16.90
2022-09-26T15:48:32.678Z,16.80
2022-09-26T15:51:25.523Z,16.60
2022-09-26T15:54:04.590Z,16.50
2022-09-26T15:56:41.611Z,16.30
2022-09-26T15:59:19.974Z,16.20
2022-09-26T16:01:50.470Z,16.10
2022-09-26T16:04:31.076Z,16.00
2022-09-26T16:07:04.528Z,15.80
2022-09-26T16:09:33.396Z,15.60
2022-09-26T16:12:05.450Z,15.70
2022-09-26T16:14:54.897Z,15.50
2022-09-26T16:17:26.789Z,15.30
2022-09-26T16:20:09.814Z,15.20
2022-09-26T16:22:53.717Z,15.20
2022-09-26T16:25:35.280Z,15.00
2022-09-26T16:28:22.781Z,15.00
2022-09-26T16:30:58.708Z,14.90
2022-09-26T16:33:32.773Z,14.80
2022-09-26T16:36:21.512Z,14.70
2022-09-26T16:38:55.176Z,14.60
2022-09-26T16:44:40.343Z,14.40
2022-09-26T16:47:47.769Z,14.20
2022-09-26T16:50:33.182Z,14.20
2022-09-26T16:53:02.900Z,14.10
2022-09-26T16:55:34.117Z,14.10
2022-09-26T16:58:04.810Z,14.00
2022-09-26T17:00:53.251Z,14.00
2022-09-26T17:03:29.946Z,13.90
2022-09-26T17:05:58.833Z,13.80
2022-09-26T17:08:27.467Z,13.70
2022-09-26T17:10:58.735Z,13.60
2022-09-26T17:13:27.912Z,13.60
2022-09-26T17:15:57.170Z,13.50
2022-09-26T17:18:32.933Z,13.40
2022-09-26T17:21:00.753Z,13.40
2022-09-26T17:23:44.559Z,13.30
2022-09-26T17:26:19.649Z,13.30
2022-09-26T17:28:46.971Z,13.20
2022-09-26T17:31:19.592Z,13.10
2022-09-26T17:33:49.677Z,13.10
2022-09-26T17:36:28.111Z,13.00
2022-09-26T17:38:59.371Z,13.00
2022-09-26T17:41:28.111Z,12.90
2022-09-26T17:44:00.963Z,12.80
2022-09-26T17:46:28.834Z,12.70
2022-09-26T17:48:56.255Z,12.70
2022-09-26T17:51:24.272Z,12.70
2022-09-26T17:53:52.602Z,12.60
2022-09-26T17:56:20.554Z,12.60
2022-09-26T17:58:49.005Z,12.50
2022-09-26T18:01:28.412Z,12.50
2022-09-26T18:04:00.870Z,12.50
2022-09-26T18:06:33.276Z,12.40
2022-09-26T18:09:07.478Z,12.40
2022-09-26T18:11:36.142Z,12.50
2022-09-26T18:14:05.399Z,12.40
2022-09-26T18:16:32.397Z,12.40
2022-09-26T18:19:06.117Z,12.30
2022-09-26T18:21:34.938Z,12.30
2022-09-26T18:24:06.545Z,12.30
2022-09-26T18:26:42.119Z,12.20
2022-09-26T18:29:15.293Z,12.20
2022-09-26T18:31:45.805Z,12.10
2022-09-26T18:34:20.425Z,12.10
2022-09-26T18:36:51.890Z,12.10
2022-09-26T18:39:18.826Z,12.10
2022-09-26T18:41:46.141Z,11.90
2022-09-26T18:44:18.099Z,12.00
2022-09-26T18:46:47.107Z,12.00
2022-09-26T18:49:15.187Z,12.00
2022-09-26T18:51:42.654Z,12.10
2022-09-26T18:54:15.712Z,11.90
2022-09-26T18:57:01.648Z,11.90
2022-09-26T18:59:31.242Z,11.80
2022-09-26T19:01:59.956Z,11.80
2022-09-26T19:04:28.303Z,11.70
2022-09-26T19:07:01.466Z,11.80
2022-09-26T19:09:34.345Z,11.80
2022-09-26T19:12:02.765Z,11.70
2022-09-26T19:14:31.434Z,11.70
2022-09-26T19:16:58.811Z,11.70
2022-09-26T19:19:28.444Z,11.80
2022-09-26T19:22:07.898Z,11.70
2022-09-26T19:24:53.007Z,11.70
2022-09-26T19:27:28.483Z,11.70
2022-09-26T19:30:21.277Z,11.70
2022-09-26T19:32:51.917Z,11.70
2022-09-26T19:35:34.360Z,11.70
2022-09-26T19:38:03.792Z,11.60
2022-09-26T19:40:31.419Z,11.60
2022-09-26T19:42:58.881Z,11.50
2022-09-26T19:45:26.933Z,11.50
2022-09-26T19:47:55.800Z,11.50
2022-09-26T19:50:26.819Z,11.50
2022-09-26T19:52:56.730Z,11.50
2022-09-26T19:55:27.367Z,11.50
2022-09-26T19:58:00.480Z,11.40
2022-09-26T20:00:27.400Z,11.40
2022-09-26T20:02:54.976Z,11.30
2022-09-26T20:05:24.771Z,11.30
2022-09-26T20:07:53.768Z,11.30
2022-09-26T20:10:25.270Z,11.30
2022-09-26T20:12:52.726Z,11.20
2022-09-26T20:15:22.774Z,11.30
2022-09-26T20:17:50.836Z,11.20
2022-09-26T20:20:24.445Z,11.10
2022-09-26T20:22:53.253Z,11.10
2022-09-26T20:25:31.954Z,11.00
2022-09-26T20:28:00.360Z,11.00
2022-09-26T20:30:46.005Z,11.00
2022-09-26T20:33:13.370Z,11.00
2022-09-26T20:35:47.468Z,11.00
2022-09-26T20:38:45.405Z,11.00
2022-09-26T20:41:29.464Z,10.90
2022-09-26T20:44:03.711Z,11.00
2022-09-26T20:46:38.445Z,10.90
2022-09-26T20:49:13.240Z,10.90
2022-09-26T20:51:41.608Z,10.90
2022-09-26T20:54:26.001Z,12.00
2022-09-26T20:56:55.205Z,10.90
2022-09-26T20:59:23.804Z,10.90
2022-09-26T21:01:52.628Z,10.90
2022-09-26T21:04:29.940Z,10.90
2022-09-26T21:06:57.327Z,10.80
2022-09-26T21:09:24.258Z,10.80
2022-09-26T21:11:51.274Z,10.90
2022-09-26T21:14:18.826Z,10.90
2022-09-26T21:16:51.532Z,10.90
2022-09-26T21:19:24.273Z,11.00
2022-09-26T21:21:54.302Z,10.80
2022-09-26T21:24:29.984Z,10.80
2022-09-26T21:26:57.132Z,10.90
2022-09-26T21:29:24.032Z,10.80
2022-09-26T21:31:53.430Z,10.90
2022-09-26T21:34:27.930Z,10.80
2022-09-26T21:36:57.144Z,10.80
2022-09-26T21:39:25.342Z,10.80
2022-09-26T21:42:02.144Z,10.80
2022-09-26T21:44:44.871Z,11.40
2022-09-26T21:47:11.824Z,10.80
2022-09-26T21:49:46.313Z,11.40
2022-09-26T21:52:31.082Z,10.80
2022-09-26T21:55:00.341Z,10.80
2022-09-26T21:57:33.327Z,10.90
2022-09-26T22:00:02.806Z,10.80
2022-09-26T22:02:29.839Z,10.90
2022-09-26T22:04:56.754Z,11.00
2022-09-26T22:07:23.617Z,10.90
2022-09-26T22:09:50.587Z,10.80
2022-09-26T22:12:17.587Z,10.80
2022-09-26T22:14:44.485Z,11.10
2022-09-26T22:17:11.466Z,10.80
2022-09-26T22:19:38.490Z,10.70
2022-09-26T22:22:05.739Z,10.70
2022-09-26T22:24:33.206Z,10.70
2022-09-26T22:27:00.120Z,11.30
2022-09-26T22:29:27.413Z,11.20
2022-09-26T22:31:54.328Z,10.60
2022-09-26T22:34:26.145Z,10.60
2022-09-26T22:36:53.342Z,10.90
2022-09-26T22:39:20.216Z,10.50
2022-09-26T22:41:47.111Z,10.60
2022-09-26T22:44:14.620Z,10.50
2022-09-26T22:46:41.718Z,10.40
2022-09-26T22:49:08.644Z,10.40
2022-09-26T22:51:35.526Z,10.90
2022-09-26T22:54:02.632Z,11.00
2022-09-26T22:56:29.627Z,10.40
2022-09-26T22:58:56.547Z,11.00
2022-09-26T23:01:27.881Z,10.80
2022-09-26T23:03:55.313Z,10.80
2022-09-26T23:06:23.682Z,11.20
2022-09-26T23:08:51.403Z,10.60
2022-09-26T23:11:19.799Z,10.90
2022-09-26T23:13:52.624Z,10.50
2022-09-26T23:16:23.787Z,10.70
2022-09-26T23:18:51.748Z,10.60
2022-09-26T23:21:22.701Z,10.70
2022-09-26T23:23:53.318Z,10.90
2022-09-26T23:26:25.282Z,10.80
2022-09-26T23:28:54.949Z,10.50
2022-09-26T23:31:23.303Z,10.60
2022-09-26T23:33:50.360Z,10.50
2022-09-26T23:36:17.371Z,11.10
2022-09-26T23:38:45.145Z,10.80
2022-09-26T23:41:13.354Z,10.70
2022-09-26T23:43:40.654Z,10.30
2022-09-26T23:46:08.230Z,10.90
2022-09-26T23:48:35.476Z,10.20
2022-09-26T23:51:02.771Z,11.60
2022-09-26T23:53:29.827Z,10.50
2022-09-26T23:56:09.043Z,10.90
2022-09-26T23:58:37.111Z,10.20
